sensor_id;sensor_type;location;lat;lon;timestamp;temperature;humidity
76838;DHT22;65797;47.352;8.164;2022-12-18T00:01:02;-1.50;43.10
76838;DHT22;65797;47.352;8.164;2022-12-18T00:03:33;-1.50;1.00
76838;DHT22;65797;47.352;8.164;2022-12-18T00:05:58;-1.50;1.00
76838;DHT22;65797;47.352;8.164;2022-12-18T00:08:24;-1.50;1.00
76838;DHT22;65797;47.352;8.164;2022-12-18T00:10:50;-1.50;1.00
76838;DHT22;65797;47.352;8.164;2022-12-18T00:13:15;-1.50;1.00
76838;DHT22;65797;47.352;8.164;2022-12-18T00:15:41;-1.50;1.00
76838;DHT22;65797;47.352;8.164;2022-12-18T00:18:07;-1.60;1.00
76838;DHT22;65797;47.352;8.164;2022-12-18T00:20:39;-1.60;1.00
76838;DHT22;65797;47.352;8.164;2022-12-18T00:23:06;-1.50;1.00
76838;DHT22;65797;47.352;8.164;2022-12-18T00:25:33;-1.50;1.00
76838;DHT22;65797;47.352;8.164;2022-12-18T00:28:00;-1.50;1.00
76838;DHT22;65797;47.352;8.164;2022-12-18T00:30:25;-1.50;1.00
76838;DHT22;65797;47.352;8.164;2022-12-18T00:32:51;-1.60;99.90
76838;DHT22;65797;47.352;8.164;2022-12-18T00:35:17;-1.60;1.00
76838;DHT22;65797;47.352;8.164;2022-12-18T00:37:42;-1.50;1.00
76838;DHT22;65797;47.352;8.164;2022-12-18T00:40:09;-1.50;1.00
76838;DHT22;65797;47.352;8.164;2022-12-18T00:42:34;-1.50;1.00
76838;DHT22;65797;47.352;8.164;2022-12-18T00:45:19;-1.50;1.00
76838;DHT22;65797;47.352;8.164;2022-12-18T00:47:45;-1.50;1.00
76838;DHT22;65797;47.352;8.164;2022-12-18T00:50:10;-1.50;46.90
76838;DHT22;65797;47.352;8.164;2022-12-18T00:52:36;-1.50;1.00
76838;DHT22;65797;47.352;8.164;2022-12-18T00:55:08;-1.50;1.00
76838;DHT22;65797;47.352;8.164;2022-12-18T00:57:34;-1.50;1.00
76838;DHT22;65797;47.352;8.164;2022-12-18T01:00:00;-1.50;1.00
76838;DHT22;65797;47.352;8.164;2022-12-18T01:02:26;-1.40;1.00
76838;DHT22;65797;47.352;8.164;2022-12-18T01:04:51;-1.40;1.00
76838;DHT22;65797;47.352;8.164;2022-12-18T01:07:17;-1.40;1.00
76838;DHT22;65797;47.352;8.164;2022-12-18T01:09:43;-1.40;1.00
76838;DHT22;65797;47.352;8.164;2022-12-18T01:12:10;-1.40;1.00
76838;DHT22;65797;47.352;8.164;2022-12-18T01:14:36;-1.40;1.00
76838;DHT22;65797;47.352;8.164;2022-12-18T01:17:03;-1.40;1.00
76838;DHT22;65797;47.352;8.164;2022-12-18T01:19:29;-1.40;1.00
76838;DHT22;65797;47.352;8.164;2022-12-18T01:21:55;-1.40;1.00
76838;DHT22;65797;47.352;8.164;2022-12-18T01:24:20;-1.50;99.90
76838;DHT22;65797;47.352;8.164;2022-12-18T01:26:46;-1.50;99.90
76838;DHT22;65797;47.352;8.164;2022-12-18T01:29:12;-1.50;1.00
76838;DHT22;65797;47.352;8.164;2022-12-18T01:31:37;-1.40;1.00
76838;DHT22;65797;47.352;8.164;2022-12-18T01:34:04;-1.50;99.90
76838;DHT22;65797;47.352;8.164;2022-12-18T01:36:35;-1.40;1.00
76838;DHT22;65797;47.352;8.164;2022-12-18T01:39:04;-1.40;1.00
76838;DHT22;65797;47.352;8.164;2022-12-18T01:41:32;-1.40;1.00
76838;DHT22;65797;47.352;8.164;2022-12-18T01:47:27;-1.40;99.90
76838;DHT22;65797;47.352;8.164;2022-12-18T01:49:54;-1.40;1.00
76838;DHT22;65797;47.352;8.164;2022-12-18T01:52:22;-1.40;1.00
76838;DHT22;65797;47.352;8.164;2022-12-18T01:54:50;-1.40;1.00
76838;DHT22;65797;47.352;8.164;2022-12-18T01:57:16;-1.40;99.90
76838;DHT22;65797;47.352;8.164;2022-12-18T01:59:43;-1.40;99.90
76838;DHT22;65797;47.352;8.164;2022-12-18T02:02:09;-1.40;1.00
76838;DHT22;65797;47.352;8.164;2022-12-18T02:04:35;-1.40;1.00
76838;DHT22;65797;47.352;8.164;2022-12-18T02:07:12;-1.40;1.00
76838;DHT22;65797;47.352;8.164;2022-12-18T02:10:00;-1.40;99.90
76838;DHT22;65797;47.352;8.164;2022-12-18T02:12:34;-1.50;1.00
76838;DHT22;65797;47.352;8.164;2022-12-18T02:15:12;-1.40;1.00
76838;DHT22;65797;47.352;8.164;2022-12-18T02:18:05;-1.40;1.00
76838;DHT22;65797;47.352;8.164;2022-12-18T02:20:41;-1.50;99.90
76838;DHT22;65797;47.352;8.164;2022-12-18T02:26:23;-1.40;99.90
76838;DHT22;65797;47.352;8.164;2022-12-18T02:28:59;-1.40;99.90
76838;DHT22;65797;47.352;8.164;2022-12-18T02:31:29;-1.40;99.90
76838;DHT22;65797;47.352;8.164;2022-12-18T02:34:00;-1.40;99.90
76838;DHT22;65797;47.352;8.164;2022-12-18T02:36:28;-1.40;99.90
76838;DHT22;65797;47.352;8.164;2022-12-18T02:38:55;-1.40;37.00
76838;DHT22;65797;47.352;8.164;2022-12-18T02:41:23;-1.40;76.10
76838;DHT22;65797;47.352;8.164;2022-12-18T02:43:56;-1.50;51.70
76838;DHT22;65797;47.352;8.164;2022-12-18T02:46:29;-1.40;99.90
76838;DHT22;65797;47.352;8.164;2022-12-18T02:49:15;-1.50;1.00
76838;DHT22;65797;47.352;8.164;2022-12-18T02:54:43;-1.50;30.90
76838;DHT22;65797;47.352;8.164;2022-12-18T02:57:20;-1.50;89.60
76838;DHT22;65797;47.352;8.164;2022-12-18T03:05:24;-1.50;1.00
76838;DHT22;65797;47.352;8.164;2022-12-18T03:08:07;-1.50;97.00
76838;DHT22;65797;47.352;8.164;2022-12-18T03:10:37;-1.50;1.00
76838;DHT22;65797;47.352;8.164;2022-12-18T03:13:19;-1.50;1.00
76838;DHT22;65797;47.352;8.164;2022-12-18T03:15:48;-1.50;1.00
76838;DHT22;65797;47.352;8.164;2022-12-18T03:18:29;-1.50;1.00
76838;DHT22;65797;47.352;8.164;2022-12-18T03:20:58;-1.50;1.00
76838;DHT22;65797;47.352;8.164;2022-12-18T03:23:29;-1.60;1.00
76838;DHT22;65797;47.352;8.164;2022-12-18T03:25:58;-1.60;1.00
76838;DHT22;65797;47.352;8.164;2022-12-18T03:28:28;-1.60;1.00
76838;DHT22;65797;47.352;8.164;2022-12-18T03:30:57;-1.60;1.00
76838;DHT22;65797;47.352;8.164;2022-12-18T03:33:37;-1.70;1.00
76838;DHT22;65797;47.352;8.164;2022-12-18T03:36:04;-1.70;1.00
76838;DHT22;65797;47.352;8.164;2022-12-18T03:38:29;-1.60;1.00
76838;DHT22;65797;47.352;8.164;2022-12-18T03:44:17;-1.60;1.00
76838;DHT22;65797;47.352;8.164;2022-12-18T03:46:58;-1.70;1.00
76838;DHT22;65797;47.352;8.164;2022-12-18T03:49:59;-1.70;1.00
76838;DHT22;65797;47.352;8.164;2022-12-18T03:52:36;-1.70;1.00
76838;DHT22;65797;47.352;8.164;2022-12-18T03:55:04;-1.70;60.10
76838;DHT22;65797;47.352;8.164;2022-12-18T03:57:33;-1.70;99.90
76838;DHT22;65797;47.352;8.164;2022-12-18T04:00:09;-1.70;1.00
76838;DHT22;65797;47.352;8.164;2022-12-18T04:02:38;-1.70;2.30
76838;DHT22;65797;47.352;8.164;2022-12-18T04:05:07;-1.70;1.00
76838;DHT22;65797;47.352;8.164;2022-12-18T04:07:34;-1.80;1.00
76838;DHT22;65797;47.352;8.164;2022-12-18T04:10:01;-1.80;1.00
76838;DHT22;65797;47.352;8.164;2022-12-18T04:12:29;-1.90;1.00
76838;DHT22;65797;47.352;8.164;2022-12-18T04:14:55;-1.90;1.00
76838;DHT22;65797;47.352;8.164;2022-12-18T04:17:21;-1.90;1.00
76838;DHT22;65797;47.352;8.164;2022-12-18T04:19:48;-1.90;1.00
76838;DHT22;65797;47.352;8.164;2022-12-18T04:22:13;-1.90;1.00
76838;DHT22;65797;47.352;8.164;2022-12-18T04:24:39;-1.90;1.00
76838;DHT22;65797;47.352;8.164;2022-12-18T04:27:05;-2.00;1.00
76838;DHT22;65797;47.352;8.164;2022-12-18T04:29:31;-2.00;1.00
76838;DHT22;65797;47.352;8.164;2022-12-18T04:31:56;-2.00;1.00
76838;DHT22;65797;47.352;8.164;2022-12-18T04:34:22;-2.00;1.00
76838;DHT22;65797;47.352;8.164;2022-12-18T04:36:48;-2.00;1.00
76838;DHT22;65797;47.352;8.164;2022-12-18T04:39:14;-2.00;1.00
76838;DHT22;65797;47.352;8.164;2022-12-18T04:41:42;-2.00;1.00
76838;DHT22;65797;47.352;8.164;2022-12-18T04:44:08;-1.90;1.00
76838;DHT22;65797;47.352;8.164;2022-12-18T04:46:33;-1.90;1.00
76838;DHT22;65797;47.352;8.164;2022-12-18T04:48:59;-1.90;1.00
76838;DHT22;65797;47.352;8.164;2022-12-18T04:51:25;-1.90;1.00
76838;DHT22;65797;47.352;8.164;2022-12-18T04:53:50;-1.90;1.00
76838;DHT22;65797;47.352;8.164;2022-12-18T04:56:16;-1.90;1.00
76838;DHT22;65797;47.352;8.164;2022-12-18T04:58:43;-1.90;1.00
76838;DHT22;65797;47.352;8.164;2022-12-18T05:01:10;-1.90;76.10
76838;DHT22;65797;47.352;8.164;2022-12-18T05:03:37;-1.90;67.90
76838;DHT22;65797;47.352;8.164;2022-12-18T05:06:03;-1.90;99.30
76838;DHT22;65797;47.352;8.164;2022-12-18T05:08:29;-1.90;99.90
76838;DHT22;65797;47.352;8.164;2022-12-18T05:11:04;-1.90;99.70
76838;DHT22;65797;47.352;8.164;2022-12-18T05:13:30;-1.90;1.00
76838;DHT22;65797;47.352;8.164;2022-12-18T05:15:56;-1.90;99.90
76838;DHT22;65797;47.352;8.164;2022-12-18T05:18:22;-1.90;99.90
76838;DHT22;65797;47.352;8.164;2022-12-18T05:20:50;-1.90;99.90
76838;DHT22;65797;47.352;8.164;2022-12-18T05:23:16;-1.90;99.90
76838;DHT22;65797;47.352;8.164;2022-12-18T05:25:41;-1.90;99.90
76838;DHT22;65797;47.352;8.164;2022-12-18T05:28:07;-1.90;1.00
76838;DHT22;65797;47.352;8.164;2022-12-18T05:30:33;-1.90;1.00
76838;DHT22;65797;47.352;8.164;2022-12-18T05:32:58;-1.90;99.90
76838;DHT22;65797;47.352;8.164;2022-12-18T05:35:24;-1.90;1.00
76838;DHT22;65797;47.352;8.164;2022-12-18T05:37:50;-1.90;99.90
76838;DHT22;65797;47.352;8.164;2022-12-18T05:40:16;-1.90;99.90
76838;DHT22;65797;47.352;8.164;2022-12-18T05:42:41;-1.90;1.00
76838;DHT22;65797;47.352;8.164;2022-12-18T05:45:07;-1.80;99.90
76838;DHT22;65797;47.352;8.164;2022-12-18T05:47:33;-1.90;1.00
76838;DHT22;65797;47.352;8.164;2022-12-18T05:49:59;-1.80;1.00
76838;DHT22;65797;47.352;8.164;2022-12-18T05:52:24;-1.80;99.90
76838;DHT22;65797;47.352;8.164;2022-12-18T05:54:50;-1.80;99.90
76838;DHT22;65797;47.352;8.164;2022-12-18T05:57:16;-1.80;99.90
76838;DHT22;65797;47.352;8.164;2022-12-18T05:59:42;-1.80;99.90
76838;DHT22;65797;47.352;8.164;2022-12-18T06:02:07;-1.80;99.90
76838;DHT22;65797;47.352;8.164;2022-12-18T06:04:33;-1.80;1.00
76838;DHT22;65797;47.352;8.164;2022-12-18T06:06:59;-1.80;1.00
76838;DHT22;65797;47.352;8.164;2022-12-18T06:09:24;-1.70;1.00
76838;DHT22;65797;47.352;8.164;2022-12-18T06:11:52;-1.70;1.00
76838;DHT22;65797;47.352;8.164;2022-12-18T06:14:18;-1.80;99.90
76838;DHT22;65797;47.352;8.164;2022-12-18T06:16:44;-1.80;99.90
76838;DHT22;65797;47.352;8.164;2022-12-18T06:19:15;-1.80;1.00
76838;DHT22;65797;47.352;8.164;2022-12-18T06:21:41;-1.80;99.90
76838;DHT22;65797;47.352;8.164;2022-12-18T06:24:07;-1.80;99.90
76838;DHT22;65797;47.352;8.164;2022-12-18T06:26:33;-1.80;99.90
76838;DHT22;65797;47.352;8.164;2022-12-18T06:28:58;-1.80;99.90
76838;DHT22;65797;47.352;8.164;2022-12-18T06:31:25;-1.80;1.00
76838;DHT22;65797;47.352;8.164;2022-12-18T06:33:50;-1.70;1.00
76838;DHT22;65797;47.352;8.164;2022-12-18T06:36:16;-1.80;1.00
76838;DHT22;65797;47.352;8.164;2022-12-18T06:38:43;-1.70;25.60
76838;DHT22;65797;47.352;8.164;2022-12-18T06:41:17;-1.70;22.50
76838;DHT22;65797;47.352;8.164;2022-12-18T06:43:44;-1.70;7.10
76838;DHT22;65797;47.352;8.164;2022-12-18T06:46:10;-1.70;99.90
76838;DHT22;65797;47.352;8.164;2022-12-18T06:48:36;-1.80;1.00
76838;DHT22;65797;47.352;8.164;2022-12-18T06:51:02;-1.70;97.10
76838;DHT22;65797;47.352;8.164;2022-12-18T06:53:28;-1.70;99.90
76838;DHT22;65797;47.352;8.164;2022-12-18T06:56:05;-1.70;3.00
76838;DHT22;65797;47.352;8.164;2022-12-18T06:58:31;-1.70;1.00
76838;DHT22;65797;47.352;8.164;2022-12-18T07:01:01;-1.70;1.00
76838;DHT22;65797;47.352;8.164;2022-12-18T07:03:26;-1.70;1.00
76838;DHT22;65797;47.352;8.164;2022-12-18T07:05:52;-1.70;1.00
76838;DHT22;65797;47.352;8.164;2022-12-18T07:08:18;-1.70;1.00
76838;DHT22;65797;47.352;8.164;2022-12-18T07:10:44;-1.70;99.90
76838;DHT22;65797;47.352;8.164;2022-12-18T07:13:10;-1.70;1.00
76838;DHT22;65797;47.352;8.164;2022-12-18T07:15:36;-1.70;1.00
76838;DHT22;65797;47.352;8.164;2022-12-18T07:18:02;-1.70;96.00
76838;DHT22;65797;47.352;8.164;2022-12-18T07:20:27;-1.70;86.00
76838;DHT22;65797;47.352;8.164;2022-12-18T07:22:53;-1.70;99.90
76838;DHT22;65797;47.352;8.164;2022-12-18T07:25:19;-1.70;1.00
76838;DHT22;65797;47.352;8.164;2022-12-18T07:27:44;-1.60;1.00
76838;DHT22;65797;47.352;8.164;2022-12-18T07:30:10;-1.70;1.00
76838;DHT22;65797;47.352;8.164;2022-12-18T07:32:36;-1.70;1.00
76838;DHT22;65797;47.352;8.164;2022-12-18T07:35:02;-1.70;9.30
76838;DHT22;65797;47.352;8.164;2022-12-18T07:37:27;-1.70;1.00
76838;DHT22;65797;47.352;8.164;2022-12-18T07:39:53;-1.70;40.60
76838;DHT22;65797;47.352;8.164;2022-12-18T07:42:19;-1.70;1.00
76838;DHT22;65797;47.352;8.164;2022-12-18T07:44:57;-1.70;99.90
76838;DHT22;65797;47.352;8.164;2022-12-18T07:47:23;-1.60;99.90
76838;DHT22;65797;47.352;8.164;2022-12-18T07:49:48;-1.60;99.90
76838;DHT22;65797;47.352;8.164;2022-12-18T07:52:14;-1.60;99.90
76838;DHT22;65797;47.352;8.164;2022-12-18T07:54:40;-1.70;1.00
76838;DHT22;65797;47.352;8.164;2022-12-18T07:57:07;-1.60;99.90
76838;DHT22;65797;47.352;8.164;2022-12-18T07:59:32;-1.60;99.90
76838;DHT22;65797;47.352;8.164;2022-12-18T08:01:58;-1.60;99.90
76838;DHT22;65797;47.352;8.164;2022-12-18T08:04:24;-1.60;1.00
76838;DHT22;65797;47.352;8.164;2022-12-18T08:06:50;-1.60;25.20
76838;DHT22;65797;47.352;8.164;2022-12-18T08:09:16;-1.60;1.00
76838;DHT22;65797;47.352;8.164;2022-12-18T08:11:42;-1.60;99.90
76838;DHT22;65797;47.352;8.164;2022-12-18T08:14:08;-1.60;99.90
76838;DHT22;65797;47.352;8.164;2022-12-18T08:16:34;-1.60;85.70
76838;DHT22;65797;47.352;8.164;2022-12-18T08:18:59;-1.60;99.90
76838;DHT22;65797;47.352;8.164;2022-12-18T08:21:28;-1.70;99.90
76838;DHT22;65797;47.352;8.164;2022-12-18T08:23:56;-1.60;99.90
76838;DHT22;65797;47.352;8.164;2022-12-18T08:26:22;-1.60;99.90
76838;DHT22;65797;47.352;8.164;2022-12-18T08:28:49;-1.60;99.90
76838;DHT22;65797;47.352;8.164;2022-12-18T08:31:15;-1.60;66.70
76838;DHT22;65797;47.352;8.164;2022-12-18T08:33:41;-1.60;99.90
76838;DHT22;65797;47.352;8.164;2022-12-18T08:36:08;-1.60;99.90
76838;DHT22;65797;47.352;8.164;2022-12-18T08:38:35;-1.60;1.00
76838;DHT22;65797;47.352;8.164;2022-12-18T08:41:01;-1.60;88.50
76838;DHT22;65797;47.352;8.164;2022-12-18T08:43:27;-1.50;99.90
76838;DHT22;65797;47.352;8.164;2022-12-18T08:46:12;-1.50;1.00
76838;DHT22;65797;47.352;8.164;2022-12-18T08:48:40;-1.50;99.90
76838;DHT22;65797;47.352;8.164;2022-12-18T08:51:06;-1.50;99.90
76838;DHT22;65797;47.352;8.164;2022-12-18T08:53:32;-1.50;1.00
76838;DHT22;65797;47.352;8.164;2022-12-18T08:55:57;-1.50;1.00
76838;DHT22;65797;47.352;8.164;2022-12-18T08:58:23;-1.40;44.50
76838;DHT22;65797;47.352;8.164;2022-12-18T09:00:49;-1.30;14.90
76838;DHT22;65797;47.352;8.164;2022-12-18T09:03:19;-1.30;1.00
76838;DHT22;65797;47.352;8.164;2022-12-18T09:05:48;-1.30;1.00
76838;DHT22;65797;47.352;8.164;2022-12-18T09:08:14;-1.20;1.00
76838;DHT22;65797;47.352;8.164;2022-12-18T09:10:48;-1.20;1.00
76838;DHT22;65797;47.352;8.164;2022-12-18T09:13:15;-1.30;99.90
76838;DHT22;65797;47.352;8.164;2022-12-18T09:15:46;-1.30;99.90
76838;DHT22;65797;47.352;8.164;2022-12-18T09:18:13;-1.30;99.90
76838;DHT22;65797;47.352;8.164;2022-12-18T09:20:39;-1.50;1.00
76838;DHT22;65797;47.352;8.164;2022-12-18T09:23:05;-1.40;99.90
76838;DHT22;65797;47.352;8.164;2022-12-18T09:25:32;-1.30;99.90
76838;DHT22;65797;47.352;8.164;2022-12-18T09:28:14;-1.40;1.00
76838;DHT22;65797;47.352;8.164;2022-12-18T09:30:42;-1.30;74.50
76838;DHT22;65797;47.352;8.164;2022-12-18T09:33:08;-1.20;99.90
76838;DHT22;65797;47.352;8.164;2022-12-18T09:35:38;-1.20;1.00
76838;DHT22;65797;47.352;8.164;2022-12-18T09:38:04;-1.20;4.50
76838;DHT22;65797;47.352;8.164;2022-12-18T09:40:46;-1.20;1.00
76838;DHT22;65797;47.352;8.164;2022-12-18T09:43:20;-1.20;99.90
76838;DHT22;65797;47.352;8.164;2022-12-18T09:45:53;-1.20;1.00
76838;DHT22;65797;47.352;8.164;2022-12-18T09:48:27;-1.10;54.70
76838;DHT22;65797;47.352;8.164;2022-12-18T09:50:58;-1.10;1.00
76838;DHT22;65797;47.352;8.164;2022-12-18T09:53:29;-1.10;99.90
76838;DHT22;65797;47.352;8.164;2022-12-18T09:55:57;-1.00;99.90
76838;DHT22;65797;47.352;8.164;2022-12-18T09:58:34;-1.00;99.90
76838;DHT22;65797;47.352;8.164;2022-12-18T10:01:01;-0.90;9.50
76838;DHT22;65797;47.352;8.164;2022-12-18T10:03:27;-0.90;46.90
76838;DHT22;65797;47.352;8.164;2022-12-18T10:05:59;-1.00;1.00
76838;DHT22;65797;47.352;8.164;2022-12-18T10:11:31;-1.00;1.00
76838;DHT22;65797;47.352;8.164;2022-12-18T10:19:56;-1.00;1.00
76838;DHT22;65797;47.352;8.164;2022-12-18T10:22:43;-1.00;1.00
76838;DHT22;65797;47.352;8.164;2022-12-18T10:25:38;-0.90;99.90
76838;DHT22;65797;47.352;8.164;2022-12-18T10:28:12;-0.90;99.90
76838;DHT22;65797;47.352;8.164;2022-12-18T10:30:39;-0.90;99.90
76838;DHT22;65797;47.352;8.164;2022-12-18T10:33:05;-0.90;99.90
76838;DHT22;65797;47.352;8.164;2022-12-18T10:35:33;-0.90;99.90
76838;DHT22;65797;47.352;8.164;2022-12-18T10:40:26;-0.80;34.10
76838;DHT22;65797;47.352;8.164;2022-12-18T10:43:05;-0.80;99.90
76838;DHT22;65797;47.352;8.164;2022-12-18T10:45:31;-0.80;90.50
76838;DHT22;65797;47.352;8.164;2022-12-18T10:47:56;-0.80;97.80
76838;DHT22;65797;47.352;8.164;2022-12-18T10:52:57;-0.70;99.90
76838;DHT22;65797;47.352;8.164;2022-12-18T10:55:31;-0.70;99.90
76838;DHT22;65797;47.352;8.164;2022-12-18T10:58:15;-0.70;99.90
76838;DHT22;65797;47.352;8.164;2022-12-18T11:00:42;-0.70;99.90
76838;DHT22;65797;47.352;8.164;2022-12-18T11:03:31;-0.60;25.40
76838;DHT22;65797;47.352;8.164;2022-12-18T11:06:12;-0.50;99.90
76838;DHT22;65797;47.352;8.164;2022-12-18T11:08:38;-0.50;99.90
76838;DHT22;65797;47.352;8.164;2022-12-18T11:11:09;-0.40;99.90
76838;DHT22;65797;47.352;8.164;2022-12-18T11:13:40;-0.50;1.00
76838;DHT22;65797;47.352;8.164;2022-12-18T11:16:06;-0.60;1.00
76838;DHT22;65797;47.352;8.164;2022-12-18T11:18:35;-0.70;96.60
76838;DHT22;65797;47.352;8.164;2022-12-18T11:21:09;-0.60;99.90
76838;DHT22;65797;47.352;8.164;2022-12-18T11:23:36;-0.50;99.90
76838;DHT22;65797;47.352;8.164;2022-12-18T11:26:04;-0.40;99.90
76838;DHT22;65797;47.352;8.164;2022-12-18T11:28:49;-0.50;14.30
76838;DHT22;65797;47.352;8.164;2022-12-18T11:31:27;-0.60;99.90
76838;DHT22;65797;47.352;8.164;2022-12-18T11:36:43;-0.60;1.00
76838;DHT22;65797;47.352;8.164;2022-12-18T11:42:08;-0.70;75.20
76838;DHT22;65797;47.352;8.164;2022-12-18T11:47:28;-0.70;26.10
76838;DHT22;65797;47.352;8.164;2022-12-18T11:49:56;-0.60;36.50
76838;DHT22;65797;47.352;8.164;2022-12-18T11:52:35;-0.70;99.90
76838;DHT22;65797;47.352;8.164;2022-12-18T11:55:12;-0.70;99.90
76838;DHT22;65797;47.352;8.164;2022-12-18T11:57:49;-0.60;1.00
76838;DHT22;65797;47.352;8.164;2022-12-18T12:00:18;-0.60;1.00
76838;DHT22;65797;47.352;8.164;2022-12-18T12:05:49;-0.80;99.90
76838;DHT22;65797;47.352;8.164;2022-12-18T12:08:21;-0.80;99.90
76838;DHT22;65797;47.352;8.164;2022-12-18T12:13:59;-0.90;99.90
76838;DHT22;65797;47.352;8.164;2022-12-18T12:27:50;-0.90;99.90
76838;DHT22;65797;47.352;8.164;2022-12-18T12:35:42;-1.00;99.90
76838;DHT22;65797;47.352;8.164;2022-12-18T12:38:32;-1.00;99.90
76838;DHT22;65797;47.352;8.164;2022-12-18T12:41:02;-0.90;99.90
76838;DHT22;65797;47.352;8.164;2022-12-18T12:43:42;-0.90;1.00
76838;DHT22;65797;47.352;8.164;2022-12-18T12:46:10;-1.00;1.00
76838;DHT22;65797;47.352;8.164;2022-12-18T12:48:43;-1.10;1.00
76838;DHT22;65797;47.352;8.164;2022-12-18T12:51:20;-1.00;1.00
76838;DHT22;65797;47.352;8.164;2022-12-18T12:53:47;-1.00;70.40
76838;DHT22;65797;47.352;8.164;2022-12-18T12:56:15;-0.90;1.00
76838;DHT22;65797;47.352;8.164;2022-12-18T12:58:45;-0.90;1.00
76838;DHT22;65797;47.352;8.164;2022-12-18T13:01:41;-1.00;1.00
76838;DHT22;65797;47.352;8.164;2022-12-18T13:04:15;-0.90;99.90
76838;DHT22;65797;47.352;8.164;2022-12-18T13:07:12;-0.90;1.00
76838;DHT22;65797;47.352;8.164;2022-12-18T13:18:14;-1.00;99.90
76838;DHT22;65797;47.352;8.164;2022-12-18T13:20:47;-1.00;84.10
76838;DHT22;65797;47.352;8.164;2022-12-18T13:28:16;-0.80;1.00
76838;DHT22;65797;47.352;8.164;2022-12-18T13:30:49;-0.80;99.90
76838;DHT22;65797;47.352;8.164;2022-12-18T13:40:58;-0.90;99.90
76838;DHT22;65797;47.352;8.164;2022-12-18T13:46:30;-0.90;99.90
76838;DHT22;65797;47.352;8.164;2022-12-18T13:51:44;-0.90;1.00
76838;DHT22;65797;47.352;8.164;2022-12-18T13:56:47;-0.90;99.90
76838;DHT22;65797;47.352;8.164;2022-12-18T13:59:22;-0.80;99.90
76838;DHT22;65797;47.352;8.164;2022-12-18T14:02:00;-0.80;1.00
76838;DHT22;65797;47.352;8.164;2022-12-18T14:04:29;-0.80;1.00
76838;DHT22;65797;47.352;8.164;2022-12-18T14:09:34;-0.90;99.90
76838;DHT22;65797;47.352;8.164;2022-12-18T14:12:00;-0.90;1.00
76838;DHT22;65797;47.352;8.164;2022-12-18T14:14:47;-0.90;99.90
76838;DHT22;65797;47.352;8.164;2022-12-18T14:17:15;-0.90;99.90
76838;DHT22;65797;47.352;8.164;2022-12-18T14:19:42;-0.90;99.90
76838;DHT22;65797;47.352;8.164;2022-12-18T14:22:16;-0.90;99.90
76838;DHT22;65797;47.352;8.164;2022-12-18T14:24:42;-0.90;99.90
76838;DHT22;65797;47.352;8.164;2022-12-18T14:27:25;-0.90;99.90
76838;DHT22;65797;47.352;8.164;2022-12-18T14:29:51;-0.80;99.90
76838;DHT22;65797;47.352;8.164;2022-12-18T14:32:18;-0.80;87.90
76838;DHT22;65797;47.352;8.164;2022-12-18T14:34:47;-0.80;99.90
76838;DHT22;65797;47.352;8.164;2022-12-18T14:37:15;-0.80;99.90
76838;DHT22;65797;47.352;8.164;2022-12-18T14:40:34;-0.70;6.50
76838;DHT22;65797;47.352;8.164;2022-12-18T14:42:40;-0.70;99.90
76838;DHT22;65797;47.352;8.164;2022-12-18T14:45:35;-0.70;1.00
76838;DHT22;65797;47.352;8.164;2022-12-18T14:48:34;-0.70;99.90
76838;DHT22;65797;47.352;8.164;2022-12-18T14:51:12;-0.70;99.90
76838;DHT22;65797;47.352;8.164;2022-12-18T14:53:42;-0.70;99.90
76838;DHT22;65797;47.352;8.164;2022-12-18T14:58:50;-0.80;99.90
76838;DHT22;65797;47.352;8.164;2022-12-18T15:01:37;-0.80;1.00
76838;DHT22;65797;47.352;8.164;2022-12-18T15:04:04;-0.90;99.90
76838;DHT22;65797;47.352;8.164;2022-12-18T15:06:36;-0.90;1.00
76838;DHT22;65797;47.352;8.164;2022-12-18T15:09:24;-0.90;1.00
76838;DHT22;65797;47.352;8.164;2022-12-18T15:11:56;-0.90;1.00
76838;DHT22;65797;47.352;8.164;2022-12-18T15:14:40;-0.90;99.90
76838;DHT22;65797;47.352;8.164;2022-12-18T15:17:33;-0.90;1.00
76838;DHT22;65797;47.352;8.164;2022-12-18T15:20:02;-0.90;1.00
76838;DHT22;65797;47.352;8.164;2022-12-18T15:22:35;-0.90;1.00
76838;DHT22;65797;47.352;8.164;2022-12-18T15:25:02;-1.00;1.00
76838;DHT22;65797;47.352;8.164;2022-12-18T15:27:35;-1.00;1.00
76838;DHT22;65797;47.352;8.164;2022-12-18T15:32:39;-1.00;1.00
76838;DHT22;65797;47.352;8.164;2022-12-18T15:37:41;-1.00;1.00
76838;DHT22;65797;47.352;8.164;2022-12-18T15:40:12;-1.10;99.90
76838;DHT22;65797;47.352;8.164;2022-12-18T15:42:38;-1.10;84.40
76838;DHT22;65797;47.352;8.164;2022-12-18T15:45:22;-1.10;99.90
76838;DHT22;65797;47.352;8.164;2022-12-18T15:47:47;-1.10;1.40
76838;DHT22;65797;47.352;8.164;2022-12-18T15:50:13;-1.00;99.90
76838;DHT22;65797;47.352;8.164;2022-12-18T15:52:42;-1.10;34.90
76838;DHT22;65797;47.352;8.164;2022-12-18T15:55:17;-1.10;99.90
76838;DHT22;65797;47.352;8.164;2022-12-18T15:58:01;-1.10;1.00
76838;DHT22;65797;47.352;8.164;2022-12-18T16:00:27;-1.10;99.90
76838;DHT22;65797;47.352;8.164;2022-12-18T16:02:53;-1.10;1.00
76838;DHT22;65797;47.352;8.164;2022-12-18T16:05:24;-1.10;99.90
76838;DHT22;65797;47.352;8.164;2022-12-18T16:07:51;-1.10;1.00
76838;DHT22;65797;47.352;8.164;2022-12-18T16:10:16;-1.10;8.00
76838;DHT22;65797;47.352;8.164;2022-12-18T16:12:42;-1.10;1.00
76838;DHT22;65797;47.352;8.164;2022-12-18T16:15:11;-1.20;1.00
76838;DHT22;65797;47.352;8.164;2022-12-18T16:17:39;-1.20;99.90
76838;DHT22;65797;47.352;8.164;2022-12-18T16:20:08;-1.20;1.00
76838;DHT22;65797;47.352;8.164;2022-12-18T16:22:37;-1.10;1.00
76838;DHT22;65797;47.352;8.164;2022-12-18T16:25:02;-1.10;1.00
76838;DHT22;65797;47.352;8.164;2022-12-18T16:27:28;-1.10;1.00
76838;DHT22;65797;47.352;8.164;2022-12-18T16:29:54;-1.10;14.90
76838;DHT22;65797;47.352;8.164;2022-12-18T16:32:21;-1.10;99.90
76838;DHT22;65797;47.352;8.164;2022-12-18T16:34:47;-1.10;99.90
76838;DHT22;65797;47.352;8.164;2022-12-18T16:37:14;-1.10;99.90
76838;DHT22;65797;47.352;8.164;2022-12-18T16:39:41;-1.10;99.90
76838;DHT22;65797;47.352;8.164;2022-12-18T16:42:12;-1.10;99.90
76838;DHT22;65797;47.352;8.164;2022-12-18T16:44:40;-1.20;99.90
76838;DHT22;65797;47.352;8.164;2022-12-18T16:47:06;-1.20;1.00
76838;DHT22;65797;47.352;8.164;2022-12-18T16:49:31;-1.20;1.00
76838;DHT22;65797;47.352;8.164;2022-12-18T16:51:57;-1.20;1.00
76838;DHT22;65797;47.352;8.164;2022-12-18T16:54:26;-1.20;1.00
76838;DHT22;65797;47.352;8.164;2022-12-18T16:56:55;-1.20;1.00
76838;DHT22;65797;47.352;8.164;2022-12-18T16:59:20;-1.20;1.00
76838;DHT22;65797;47.352;8.164;2022-12-18T17:01:46;-1.20;1.00
76838;DHT22;65797;47.352;8.164;2022-12-18T17:04:14;-1.20;1.00
76838;DHT22;65797;47.352;8.164;2022-12-18T17:06:43;-1.20;1.00
76838;DHT22;65797;47.352;8.164;2022-12-18T17:09:13;-1.20;1.00
76838;DHT22;65797;47.352;8.164;2022-12-18T17:11:39;-1.20;1.00
76838;DHT22;65797;47.352;8.164;2022-12-18T17:14:13;-1.20;1.00
76838;DHT22;65797;47.352;8.164;2022-12-18T17:16:39;-1.20;1.00
76838;DHT22;65797;47.352;8.164;2022-12-18T17:19:05;-1.20;1.00
76838;DHT22;65797;47.352;8.164;2022-12-18T17:21:31;-1.20;1.00
76838;DHT22;65797;47.352;8.164;2022-12-18T17:24:00;-1.20;99.90
76838;DHT22;65797;47.352;8.164;2022-12-18T17:26:26;-1.20;1.00
76838;DHT22;65797;47.352;8.164;2022-12-18T17:28:52;-1.20;1.00
76838;DHT22;65797;47.352;8.164;2022-12-18T17:31:21;-1.20;25.30
76838;DHT22;65797;47.352;8.164;2022-12-18T17:33:48;-1.20;1.00
76838;DHT22;65797;47.352;8.164;2022-12-18T17:36:14;-1.20;38.40
76838;DHT22;65797;47.352;8.164;2022-12-18T17:38:40;-1.20;1.00